Time;durP1;ratioP1;P1;durP2;ratioP2;P2;SDS_P1;SDS_P2;PMS_P1;PMS_P2;Temp;Humidity;BMP_temperature;BMP_pressure;BME280_temperature;BME280_humidity;BME280_pressure;Samples;Min_cycle;Max_cycle;Signal;HPM_P1;HPM_P2
2021/10/03 00:00:48;;;;;;;1.58;1.17;;;;;;;15.80;100.00;99491.13;5119938;29;20110;-78
2021/10/03 00:03:22;;;;;;;1.88;1.40;;;;;;;15.81;100.00;99498.16;5120229;29;20073;-78
2021/10/03 00:05:55;;;;;;;2.53;1.38;;;;;;;15.82;100.00;99494.44;5103096;29;20042;-78
2021/10/03 00:08:27;;;;;;;1.83;1.10;;;;;;;15.79;100.00;99497.59;5119575;29;20027;-78
2021/10/03 00:10:58;;;;;;;2.45;1.30;;;;;;;15.79;100.00;99505.72;5102289;29;20027;-76
2021/10/03 00:13:28;;;;;;;3.13;1.55;;;;;;;15.79;100.00;99494.88;5102399;29;20041;-76
2021/10/03 00:16:01;;;;;;;1.50;1.08;;;;;;;15.77;100.00;99505.13;5119600;29;20496;-76
2021/10/03 00:18:32;;;;;;;3.13;1.10;;;;;;;15.78;100.00;99499.47;5119613;28;20126;-76
2021/10/03 00:21:04;;;;;;;2.67;1.23;;;;;;;15.80;100.00;99497.34;5119133;29;20039;-76
2021/10/03 00:23:35;;;;;;;2.80;1.25;;;;;;;15.80;100.00;99504.63;5119677;29;20035;-77
2021/10/03 00:26:06;;;;;;;1.50;1.10;;;;;;;15.78;100.00;99510.28;5102118;29;20067;-77
2021/10/03 00:28:36;;;;;;;1.50;1.02;;;;;;;15.76;100.00;99498.91;5119765;28;20024;-76
2021/10/03 00:31:07;;;;;;;1.23;1.00;;;;;;;15.77;100.00;99491.59;5102109;28;20531;-77
2021/10/03 00:33:37;;;;;;;2.83;1.35;;;;;;;15.75;100.00;99491.81;5105963;29;20031;-76
2021/10/03 00:36:08;;;;;;;1.50;1.02;;;;;;;15.74;100.00;99505.56;5123350;29;20027;-76
2021/10/03 00:38:38;;;;;;;3.38;1.55;;;;;;;15.72;100.00;99499.59;5106233;29;20438;-76
2021/10/03 00:41:09;;;;;;;2.90;1.55;;;;;;;15.73;100.00;99491.25;5123001;29;20023;-76
2021/10/03 00:43:40;;;;;;;1.88;0.88;;;;;;;15.72;100.00;99492.31;5110359;28;20035;-76
2021/10/03 00:46:10;;;;;;;2.63;1.10;;;;;;;15.71;100.00;99489.81;5123545;29;20027;-76
2021/10/03 00:48:41;;;;;;;1.33;1.00;;;;;;;15.74;100.00;99481.25;5123283;28;20125;-76
2021/10/03 00:51:11;;;;;;;1.30;1.00;;;;;;;15.77;100.00;99487.03;5123084;29;20069;-76
2021/10/03 00:53:42;;;;;;;1.33;0.90;;;;;;;15.80;100.00;99491.94;5123226;29;20023;-76
2021/10/03 00:56:15;;;;;;;2.08;1.00;;;;;;;15.80;100.00;99483.84;5123526;29;20054;-76
2021/10/03 00:58:46;;;;;;;1.40;0.85;;;;;;;15.81;100.00;99495.47;5122925;29;20034;-76
2021/10/03 01:01:16;;;;;;;1.35;0.90;;;;;;;15.83;100.00;99484.44;5105557;29;20477;-76
2021/10/03 01:03:48;;;;;;;1.48;0.75;;;;;;;15.79;100.00;99468.66;5123669;29;20031;-76
2021/10/03 01:06:27;;;;;;;2.05;1.23;;;;;;;15.84;100.00;99470.69;5123969;29;20043;-76
2021/10/03 01:08:59;;;;;;;2.08;0.85;;;;;;;15.85;100.00;99479.59;5123039;29;20567;-76
2021/10/03 01:11:30;;;;;;;1.27;0.90;;;;;;;15.84;100.00;99476.09;5123755;29;20074;-76
2021/10/03 01:14:17;;;;;;;1.30;1.10;;;;;;;15.86;100.00;99470.44;5108342;29;20031;-76
2021/10/03 01:16:51;;;;;;;0.70;0.70;;;;;;;15.86;100.00;99470.44;5123166;29;20031;-75
2021/10/03 01:19:22;;;;;;;1.02;0.88;;;;;;;15.88;100.00;99458.34;5122810;29;20038;-76
2021/10/03 01:21:52;;;;;;;1.35;0.90;;;;;;;15.89;100.00;99464.56;5123540;29;20027;-76
2021/10/03 01:24:43;;;;;;;1.85;0.98;;;;;;;15.93;100.00;99463.03;5108994;29;20031;-76
2021/10/03 01:27:14;;;;;;;3.05;0.90;;;;;;;15.95;100.00;99450.09;5106116;29;20030;-76
2021/10/03 01:29:45;;;;;;;1.00;0.80;;;;;;;15.92;100.00;99445.19;5123069;29;20027;-76
2021/10/03 01:32:35;;;;;;;1.92;0.82;;;;;;;15.90;100.00;99437.28;5108803;29;20114;-76
2021/10/03 01:35:09;;;;;;;1.40;0.90;;;;;;;15.89;100.00;99448.34;5123201;29;20027;-76
2021/10/03 01:37:40;;;;;;;0.80;0.75;;;;;;;15.88;100.00;99439.41;5122876;29;20035;-76
2021/10/03 01:40:11;;;;;;;3.03;1.17;;;;;;;15.85;100.00;99447.16;5122749;29;20023;-75
2021/10/03 01:42:42;;;;;;;1.40;1.08;;;;;;;15.85;100.00;99450.69;5116705;28;20031;-76
2021/10/03 01:45:17;;;;;;;1.50;0.90;;;;;;;15.85;100.00;99437.16;5098906;29;20122;-76
2021/10/03 01:48:05;;;;;;;1.30;0.90;;;;;;;15.85;100.00;99445.28;5122369;29;20050;-76
2021/10/03 01:50:47;;;;;;;1.60;0.90;;;;;;;15.85;100.00;99428.22;5122401;29;20030;-76
2021/10/03 01:53:21;;;;;;;1.50;1.10;;;;;;;15.84;100.00;99429.28;5122902;29;20050;-76
2021/10/03 01:55:54;;;;;;;1.10;0.98;;;;;;;15.82;100.00;99423.31;5122734;29;20393;-76
2021/10/03 01:58:28;;;;;;;1.48;1.02;;;;;;;15.79;100.00;99417.28;5122364;29;20019;-77
2021/10/03 02:01:06;;;;;;;4.43;1.20;;;;;;;15.80;100.00;99410.00;5122348;29;20037;-76
2021/10/03 02:03:37;;;;;;;1.98;1.23;;;;;;;15.81;100.00;99414.34;5122260;29;20031;-75
2021/10/03 02:06:07;;;;;;;1.80;1.08;;;;;;;15.82;100.00;99412.50;5122624;29;20031;-76
2021/10/03 02:08:38;;;;;;;2.35;1.33;;;;;;;15.81;100.00;99403.53;5122406;29;20035;-76
2021/10/03 02:11:10;;;;;;;3.72;1.50;;;;;;;15.85;100.00;99414.72;5121844;29;20400;-76
2021/10/03 02:13:40;;;;;;;3.30;1.50;;;;;;;15.88;100.00;99411.53;5122215;29;20078;-76
2021/10/03 02:16:11;;;;;;;2.33;1.67;;;;;;;15.88;100.00;99401.53;5122314;29;20023;-76
2021/10/03 02:18:45;;;;;;;1.77;1.27;;;;;;;15.91;100.00;99402.94;5122194;29;20090;-76
2021/10/03 02:21:16;;;;;;;1.70;1.38;;;;;;;15.94;100.00;99395.19;5121738;29;20034;-76
2021/10/03 02:23:46;;;;;;;2.42;1.58;;;;;;;15.94;100.00;99394.38;5122169;29;20035;-76
2021/10/03 02:26:17;;;;;;;4.10;1.70;;;;;;;15.95;100.00;99387.91;5122000;29;20070;-76
2021/10/03 02:28:47;;;;;;;3.28;1.90;;;;;;;15.97;100.00;99385.78;5122381;29;20097;-77
2021/10/03 02:31:18;;;;;;;6.20;2.00;;;;;;;15.97;100.00;99386.63;5104506;29;20102;-76
2021/10/03 02:33:50;;;;;;;6.00;2.67;;;;;;;16.01;100.00;99376.13;5122134;29;20388;-76
2021/10/03 02:36:22;;;;;;;6.00;2.10;;;;;;;16.01;100.00;99371.56;5121531;28;20035;-77
2021/10/03 02:38:53;;;;;;;5.60;2.42;;;;;;;16.04;100.00;99362.13;5121555;28;20038;-76
2021/10/03 02:41:24;;;;;;;4.20;2.53;;;;;;;16.09;100.00;99364.94;5104073;29;20031;-76
2021/10/03 02:43:57;;;;;;;3.22;1.85;;;;;;;16.12;100.00;99367.19;5108932;29;20053;-76
2021/10/03 02:46:28;;;;;;;5.07;2.38;;;;;;;16.12;100.00;99336.59;5121573;28;20023;-77
2021/10/03 02:48:59;;;;;;;5.60;2.50;;;;;;;16.11;100.00;99345.75;5120919;28;20034;-76
2021/10/03 02:51:30;;;;;;;7.13;2.67;;;;;;;16.08;100.00;99354.38;5121643;29;20106;-77
2021/10/03 02:54:01;;;;;;;5.53;2.85;;;;;;;16.09;100.00;99372.25;5121448;28;20033;-77
2021/10/03 02:56:32;;;;;;;5.10;2.80;;;;;;;16.02;100.00;99461.63;5120754;29;20501;-77
2021/10/03 02:59:03;;;;;;;3.88;1.27;;;;;;;15.69;100.00;99449.50;5104264;29;20035;-78
2021/10/03 03:01:34;;;;;;;3.38;0.90;;;;;;;15.39;100.00;99456.81;5104533;29;20389;-77
2021/10/03 03:04:04;;;;;;;2.40;0.70;;;;;;;15.24;100.00;99455.38;5105955;29;20031;-77
2021/10/03 03:06:35;;;;;;;2.55;0.90;;;;;;;15.17;100.00;99440.31;5121699;29;20038;-78
2021/10/03 03:09:05;;;;;;;3.58;0.70;;;;;;;14.97;100.00;99463.03;5120963;28;20031;-78
2021/10/03 03:11:36;;;;;;;5.90;0.73;;;;;;;14.78;100.00;99442.50;5104678;29;21939;-78
2021/10/03 03:14:09;;;;;;;1.50;0.50;;;;;;;14.65;100.00;99454.28;5121226;29;20034;-77
2021/10/03 03:16:43;;;;;;;4.60;0.60;;;;;;;14.51;100.00;99452.81;5104162;29;20085;-78
2021/10/03 03:19:14;;;;;;;3.45;0.60;;;;;;;14.48;100.00;99431.69;5103552;29;20019;-78
2021/10/03 03:21:45;;;;;;;1.83;0.65;;;;;;;14.36;100.00;99463.13;5121362;28;20023;-78
2021/10/03 03:24:15;;;;;;;4.60;0.93;;;;;;;14.31;100.00;99466.50;5104620;29;20038;-78
2021/10/03 03:26:46;;;;;;;3.22;0.88;;;;;;;14.22;100.00;99462.44;5122503;28;20030;-79
2021/10/03 03:29:16;;;;;;;7.03;0.60;;;;;;;14.18;100.00;99462.06;5103259;28;20114;-78
2021/10/03 03:31:47;;;;;;;3.83;0.60;;;;;;;14.14;100.00;99449.25;5120832;28;20103;-78
2021/10/03 03:34:17;;;;;;;2.08;0.80;;;;;;;14.12;100.00;99475.63;5103893;29;20377;-78
2021/10/03 03:36:48;;;;;;;3.92;1.00;;;;;;;14.09;100.00;99476.88;5120749;28;20057;-78
2021/10/03 03:39:19;;;;;;;2.10;0.60;;;;;;;14.12;100.00;99454.88;5120805;28;20039;-78
2021/10/03 03:41:51;;;;;;;0.80;0.50;;;;;;;14.12;100.00;99444.09;5120756;29;20436;-78
2021/10/03 03:44:22;;;;;;;2.50;0.57;;;;;;;14.18;100.00;99450.44;5091403;29;20030;-78
2021/10/03 03:46:52;;;;;;;0.45;0.30;;;;;;;14.03;100.00;99468.88;5120411;28;20436;-77
2021/10/03 03:49:23;;;;;;;0.30;0.30;;;;;;;13.79;100.00;99473.22;5102966;29;20074;-77
2021/10/03 03:51:54;;;;;;;1.00;0.30;;;;;;;13.58;100.00;99469.03;5120538;29;20124;-77
2021/10/03 03:54:25;;;;;;;4.38;0.45;;;;;;;13.52;100.00;99448.38;5105096;29;20488;-78
2021/10/03 03:56:55;;;;;;;2.88;0.55;;;;;;;13.36;100.00;99452.44;5122752;29;20525;-78
2021/10/03 03:59:26;;;;;;;4.70;0.57;;;;;;;13.21;100.00;99458.09;5122417;29;20082;-78
2021/10/03 04:01:56;;;;;;;1.45;0.30;;;;;;;13.12;100.00;99465.59;5121541;29;20449;-78
2021/10/03 04:04:27;;;;;;;1.92;0.57;;;;;;;13.10;100.00;99470.38;5123015;29;20027;-78
2021/10/03 04:06:57;;;;;;;1.60;0.63;;;;;;;13.11;100.00;99465.81;5104385;29;20034;-78
2021/10/03 04:09:27;;;;;;;3.40;0.57;;;;;;;13.10;100.00;99462.31;5122534;29;20038;-78
2021/10/03 04:11:59;;;;;;;2.53;0.60;;;;;;;13.01;100.00;99454.69;5105694;29;20019;-78
2021/10/03 04:14:29;;;;;;;3.38;0.75;;;;;;;13.09;100.00;99451.72;5105730;29;20118;-79
2021/10/03 04:16:59;;;;;;;1.85;0.55;;;;;;;13.10;100.00;99465.00;5122659;29;20167;-78
2021/10/03 04:19:30;;;;;;;4.38;0.60;;;;;;;13.00;100.00;99461.91;5121886;29;20082;-78
2021/10/03 04:22:00;;;;;;;1.13;0.50;;;;;;;13.04;100.00;99451.56;5123072;29;20024;-78
2021/10/03 04:24:31;;;;;;;2.25;0.90;;;;;;;12.99;100.00;99454.88;5122596;29;20035;-78
2021/10/03 04:27:02;;;;;;;2.53;0.60;;;;;;;12.99;100.00;99444.13;5105667;29;20543;-79
2021/10/03 04:29:32;;;;;;;0.88;0.50;;;;;;;12.98;100.00;99449.72;5105029;29;20437;-79
2021/10/03 04:32:04;;;;;;;3.53;1.00;;;;;;;12.94;100.00;99457.41;5105050;29;20364;-78
2021/10/03 04:34:35;;;;;;;1.77;0.88;;;;;;;13.03;100.00;99441.81;5120945;29;20031;-78
2021/10/03 04:37:05;;;;;;;5.18;0.80;;;;;;;12.94;100.00;99447.44;5103799;29;20176;-78
2021/10/03 04:39:36;;;;;;;2.85;0.77;;;;;;;12.99;100.00;99432.53;5120590;29;20444;-78
2021/10/03 04:42:07;;;;;;;1.88;0.73;;;;;;;12.89;100.00;99425.75;5119389;28;20039;-78
2021/10/03 04:44:37;;;;;;;2.28;1.02;;;;;;;12.89;100.00;99441.88;5109285;28;20031;-78
2021/10/03 04:47:08;;;;;;;4.50;1.00;;;;;;;12.88;100.00;99444.81;5103428;28;20035;-79
2021/10/03 04:49:38;;;;;;;2.80;1.15;;;;;;;12.87;100.00;99445.84;5103775;29;20023;-79
2021/10/03 04:52:09;;;;;;;2.90;1.70;;;;;;;12.85;100.00;99438.00;5121052;29;20023;-79
2021/10/03 04:54:39;;;;;;;5.50;1.50;;;;;;;12.86;100.00;99436.13;5120688;29;20027;-79
2021/10/03 04:57:10;;;;;;;3.53;1.40;;;;;;;12.86;100.00;99444.22;5103902;29;20520;-79
2021/10/03 04:59:40;;;;;;;4.10;1.45;;;;;;;12.88;100.00;99448.31;5121379;29;20420;-79
2021/10/03 05:02:11;;;;;;;2.30;1.50;;;;;;;12.87;100.00;99441.28;5120582;29;20133;-79
2021/10/03 05:04:41;;;;;;;6.30;1.33;;;;;;;12.90;100.00;99440.88;5104557;29;20031;-79
2021/10/03 05:07:12;;;;;;;3.22;1.75;;;;;;;12.89;100.00;99444.59;5103666;28;20027;-79
2021/10/03 05:09:42;;;;;;;3.40;1.80;;;;;;;12.87;100.00;99438.59;5123424;29;20023;-80
2021/10/03 05:12:13;;;;;;;4.70;1.88;;;;;;;12.87;100.00;99435.09;5123642;29;20365;-80
2021/10/03 05:14:43;;;;;;;3.35;1.30;;;;;;;12.90;100.00;99440.03;5125221;29;20441;-79
2021/10/03 05:17:14;;;;;;;5.85;1.80;;;;;;;12.84;100.00;99444.41;5125541;28;20023;-78
2021/10/03 05:19:44;;;;;;;5.28;2.03;;;;;;;12.91;100.00;99442.53;5129127;29;20105;-78
2021/10/03 05:22:15;;;;;;;4.78;1.80;;;;;;;12.89;100.00;99433.81;5129744;29;20086;-79
2021/10/03 05:24:45;;;;;;;3.30;1.60;;;;;;;12.84;100.00;99417.50;5129509;29;20023;-79
2021/10/03 05:27:16;;;;;;;4.60;2.33;;;;;;;12.81;100.00;99409.03;5110917;29;20066;-80
2021/10/03 05:29:47;;;;;;;5.82;2.22;;;;;;;12.83;100.00;99418.53;5124121;28;20027;-77
2021/10/03 05:32:17;;;;;;;3.75;1.92;;;;;;;12.82;100.00;99418.75;5124663;29;20104;-77
2021/10/03 05:34:48;;;;;;;4.10;1.90;;;;;;;12.78;100.00;99417.53;5115973;28;20031;-79
2021/10/03 05:37:18;;;;;;;4.95;2.60;;;;;;;12.78;100.00;99422.91;5111333;29;20031;-77
2021/10/03 05:39:49;;;;;;;5.25;2.20;;;;;;;12.80;100.00;99416.28;5086115;29;20031;-78
2021/10/03 05:42:20;;;;;;;4.60;2.30;;;;;;;12.83;100.00;99428.47;5116153;28;20091;-78
2021/10/03 05:44:50;;;;;;;3.70;2.25;;;;;;;12.90;100.00;99429.25;5114372;29;20035;-78
2021/10/03 05:47:21;;;;;;;3.83;2.05;;;;;;;13.00;100.00;99426.09;5108114;29;20023;-78
2021/10/03 05:49:51;;;;;;;3.53;1.80;;;;;;;12.91;100.00;99430.94;5109405;29;20065;-79
2021/10/03 05:52:22;;;;;;;5.60;1.98;;;;;;;12.86;100.00;99436.97;5090030;29;20019;-78
2021/10/03 05:54:52;;;;;;;5.07;2.17;;;;;;;12.91;100.00;99437.13;5104811;29;20034;-78
2021/10/03 05:57:23;;;;;;;3.35;1.80;;;;;;;12.85;100.00;99434.47;5104213;28;20118;-78
2021/10/03 05:59:53;;;;;;;7.40;2.40;;;;;;;12.87;100.00;99427.84;5123620;28;20338;-78
2021/10/03 06:02:24;;;;;;;3.92;2.25;;;;;;;12.93;100.00;99434.22;5121624;29;20027;-79
2021/10/03 06:04:54;;;;;;;4.95;1.98;;;;;;;12.88;100.00;99436.72;5122920;29;21833;-78
2021/10/03 06:07:25;;;;;;;7.43;2.50;;;;;;;12.85;100.00;99435.31;5104636;29;20118;-78
2021/10/03 06:09:55;;;;;;;4.57;2.58;;;;;;;12.83;100.00;99434.69;5105745;29;20046;-78
2021/10/03 06:12:26;;;;;;;5.93;2.90;;;;;;;12.86;100.00;99425.38;5122391;29;20062;-79
2021/10/03 06:14:57;;;;;;;5.68;2.28;;;;;;;12.84;100.00;99430.13;5105439;29;20046;-78
2021/10/03 06:17:27;;;;;;;3.10;1.90;;;;;;;12.81;100.00;99461.00;5122271;29;20027;-78
2021/10/03 06:19:58;;;;;;;6.22;2.70;;;;;;;12.78;100.00;99441.75;5089911;29;20065;-79
2021/10/03 06:22:28;;;;;;;7.65;2.53;;;;;;;12.76;100.00;99449.22;5105573;28;20027;-79
2021/10/03 06:24:59;;;;;;;7.82;2.45;;;;;;;12.75;100.00;99445.72;5110872;29;20035;-79
2021/10/03 06:27:31;;;;;;;4.43;1.70;;;;;;;12.79;100.00;99436.16;5105399;29;20031;-79
2021/10/03 06:30:02;;;;;;;5.78;2.33;;;;;;;12.78;100.00;99422.91;5103618;29;20057;-78
2021/10/03 06:32:33;;;;;;;4.18;2.28;;;;;;;12.74;100.00;99435.97;5122625;28;20031;-79
2021/10/03 06:35:04;;;;;;;3.45;1.77;;;;;;;12.73;100.00;99441.56;5085677;29;20492;-79
2021/10/03 06:37:35;;;;;;;3.40;2.00;;;;;;;12.72;100.00;99461.47;5120581;29;20070;-79
2021/10/03 06:40:07;;;;;;;5.68;2.20;;;;;;;12.70;100.00;99473.25;5123535;29;20485;-79
2021/10/03 06:42:37;;;;;;;6.10;2.08;;;;;;;12.78;100.00;99466.78;5117938;28;20032;-78
2021/10/03 06:45:08;;;;;;;2.50;1.70;;;;;;;12.86;100.00;99471.13;5115701;29;20379;-80
2021/10/03 06:47:38;;;;;;;6.78;2.13;;;;;;;12.82;100.00;99476.09;5090192;29;20059;-79
2021/10/03 06:50:10;;;;;;;5.30;1.95;;;;;;;12.88;100.00;99477.09;5105820;29;20548;-80
2021/10/03 06:52:41;;;;;;;3.65;1.35;;;;;;;12.73;100.00;99480.06;5104648;29;20038;-79
2021/10/03 06:55:11;;;;;;;3.50;1.95;;;;;;;12.70;100.00;99477.78;5120882;29;20023;-79
2021/10/03 06:57:42;;;;;;;3.33;1.40;;;;;;;12.59;100.00;99476.59;5104053;29;20031;-80
2021/10/03 07:00:13;;;;;;;3.22;1.65;;;;;;;12.53;100.00;99490.06;5121256;29;20031;-81
2021/10/03 07:02:44;;;;;;;2.38;1.30;;;;;;;12.38;100.00;99491.16;5122624;29;20042;-81
2021/10/03 07:05:14;;;;;;;3.08;1.52;;;;;;;12.28;100.00;99506.91;5123984;29;20054;-80
2021/10/03 07:07:45;;;;;;;4.25;1.90;;;;;;;12.17;100.00;99508.38;5122169;29;20051;-81
2021/10/03 07:10:15;;;;;;;4.38;2.53;;;;;;;12.17;100.00;99512.91;5121232;29;20563;-80
2021/10/03 07:12:46;;;;;;;7.18;2.92;;;;;;;12.13;100.00;99525.13;5122233;29;20033;-80
2021/10/03 07:15:16;;;;;;;6.00;2.97;;;;;;;12.12;100.00;99534.22;5106561;29;20125;-80
2021/10/03 07:17:47;;;;;;;5.57;3.42;;;;;;;12.16;100.00;99540.84;5121457;28;20082;-80
2021/10/03 07:20:17;;;;;;;6.32;3.58;;;;;;;12.12;100.00;99531.53;5122114;28;20035;-80
2021/10/03 07:22:48;;;;;;;4.53;3.13;;;;;;;12.09;100.00;99543.50;5088546;29;20154;-80
2021/10/03 07:25:19;;;;;;;5.05;2.83;;;;;;;12.02;100.00;99539.19;5121940;29;20055;-79
2021/10/03 07:27:49;;;;;;;3.10;2.40;;;;;;;11.99;100.00;99542.28;5121634;29;20039;-79
2021/10/03 07:30:20;;;;;;;2.80;2.15;;;;;;;11.91;100.00;99554.09;5121520;29;20026;-80
2021/10/03 07:32:50;;;;;;;4.28;2.60;;;;;;;11.87;100.00;99552.84;5105184;29;20027;-80
2021/10/03 07:35:21;;;;;;;3.95;2.40;;;;;;;11.83;100.00;99551.59;5124037;28;20035;-80
2021/10/03 07:37:51;;;;;;;3.80;2.47;;;;;;;11.82;100.00;99539.19;5123030;29;20399;-80
2021/10/03 07:40:22;;;;;;;3.88;2.22;;;;;;;11.82;100.00;99541.88;5121436;28;20062;-80
2021/10/03 07:42:53;;;;;;;5.95;3.75;;;;;;;11.83;100.00;99546.22;5114260;28;20055;-79
2021/10/03 07:45:23;;;;;;;9.15;2.60;;;;;;;11.81;100.00;99559.00;5118658;29;20035;-80
2021/10/03 07:47:54;;;;;;;3.15;1.83;;;;;;;11.77;100.00;99561.28;5124406;29;20056;-80
2021/10/03 07:50:25;;;;;;;5.43;1.90;;;;;;;11.79;100.00;99558.38;5124439;29;20031;-80
2021/10/03 07:52:55;;;;;;;3.00;1.83;;;;;;;11.81;100.00;99548.25;5120165;29;20550;-79
2021/10/03 07:55:29;;;;;;;2.50;1.75;;;;;;;11.83;100.00;99549.72;5102534;29;20034;-79
2021/10/03 07:58:05;;;;;;;4.47;2.20;;;;;;;11.85;100.00;99558.41;5102545;29;20430;-80
2021/10/03 08:00:36;;;;;;;5.53;2.40;;;;;;;11.84;100.00;99572.03;5119572;29;20519;-79
2021/10/03 08:03:06;;;;;;;4.28;1.98;;;;;;;11.84;100.00;99567.50;5119452;29;20057;-80
2021/10/03 08:05:37;;;;;;;4.72;2.75;;;;;;;11.88;100.00;99568.75;5103389;29;20159;-79
2021/10/03 08:08:08;;;;;;;6.28;3.70;;;;;;;11.92;100.00;99564.63;5121899;29;20026;-79
2021/10/03 08:10:39;;;;;;;5.68;3.35;;;;;;;11.98;100.00;99562.97;5087550;29;20027;-79
2021/10/03 08:13:12;;;;;;;6.00;3.22;;;;;;;11.99;100.00;99563.78;5102313;29;20034;-80
2021/10/03 08:15:43;;;;;;;6.65;3.17;;;;;;;12.04;100.00;99564.00;5101867;29;20038;-80
2021/10/03 08:18:13;;;;;;;10.23;5.80;;;;;;;12.04;100.00;99569.38;5119364;29;20512;-79
2021/10/03 08:20:45;;;;;;;9.05;5.38;;;;;;;12.05;100.00;99579.09;5118952;29;20031;-79
2021/10/03 08:23:15;;;;;;;8.98;4.38;;;;;;;12.15;100.00;99580.34;5101932;29;20113;-79
2021/10/03 08:25:46;;;;;;;8.88;4.05;;;;;;;12.11;100.00;99587.16;5119503;29;20106;-78
2021/10/03 08:28:17;;;;;;;9.15;4.95;;;;;;;12.10;100.00;99593.59;5119137;29;20550;-79
2021/10/03 08:30:47;;;;;;;8.55;4.68;;;;;;;12.08;100.00;99601.00;5118927;29;20070;-79
2021/10/03 08:33:18;;;;;;;7.53;4.20;;;;;;;12.13;100.00;99605.78;5119015;28;20031;-79
2021/10/03 08:35:48;;;;;;;7.82;4.20;;;;;;;12.16;100.00;99606.19;5118755;29;20033;-78
2021/10/03 08:38:19;;;;;;;8.50;5.20;;;;;;;12.17;100.00;99601.63;5119268;29;20062;-79
2021/10/03 08:40:50;;;;;;;11.00;5.30;;;;;;;12.21;100.00;99604.75;5101222;29;20038;-78
2021/10/03 08:43:20;;;;;;;12.57;6.65;;;;;;;12.22;100.00;99612.59;5091098;29;20042;-79
2021/10/03 08:45:53;;;;;;;14.02;7.68;;;;;;;12.19;100.00;99605.75;5116500;29;20057;-78
2021/10/03 08:48:25;;;;;;;10.90;5.90;;;;;;;12.22;100.00;99609.91;5119321;29;20031;-79
2021/10/03 08:50:56;;;;;;;17.15;7.18;;;;;;;12.24;100.00;99599.75;5118204;29;20114;-78
2021/10/03 08:53:26;;;;;;;13.98;7.25;;;;;;;12.29;100.00;99612.59;5120658;28;20159;-79
2021/10/03 08:55:57;;;;;;;20.05;9.27;;;;;;;12.27;100.00;99604.75;5123472;29;20027;-77
2021/10/03 08:58:27;;;;;;;22.30;9.48;;;;;;;12.29;100.00;99626.84;5105099;29;20023;-77
2021/10/03 09:00:58;;;;;;;16.00;8.55;;;;;;;12.33;100.00;99619.22;5105056;29;20015;-78
2021/10/03 09:03:28;;;;;;;19.33;9.55;;;;;;;12.32;100.00;99598.75;5105577;29;20272;-77
2021/10/03 09:05:59;;;;;;;19.50;10.13;;;;;;;12.37;100.00;99591.69;5105940;29;20634;-77
2021/10/03 09:08:37;;;;;;;17.60;9.00;;;;;;;12.41;100.00;99598.31;5122479;28;20439;-77
2021/10/03 09:11:09;;;;;;;18.95;8.93;;;;;;;12.44;100.00;99605.94;5121787;29;20038;-81
2021/10/03 09:13:44;;;;;;;18.08;8.80;;;;;;;12.46;100.00;99599.56;5122519;29;20019;-80
2021/10/03 09:16:17;;;;;;;14.35;8.30;;;;;;;12.48;100.00;99619.81;5105784;29;20527;-78
2021/10/03 09:18:50;;;;;;;18.60;8.30;;;;;;;12.41;100.00;99619.84;5122239;29;20095;-77
2021/10/03 09:21:31;;;;;;;17.45;7.60;;;;;;;12.41;100.00;99621.72;5104593;29;20031;-78
2021/10/03 09:24:06;;;;;;;16.85;8.65;;;;;;;12.40;100.00;99622.75;5121937;29;20392;-77
2021/10/03 09:26:38;;;;;;;14.68;8.20;;;;;;;12.44;100.00;99626.66;5122440;29;20492;-77
2021/10/03 09:29:24;;;;;;;20.27;9.82;;;;;;;12.47;100.00;99639.69;5104576;29;20031;-77
2021/10/03 09:32:05;;;;;;;20.13;9.55;;;;;;;12.53;100.00;99636.16;5121488;29;20059;-78
2021/10/03 09:34:38;;;;;;;17.83;9.00;;;;;;;12.56;100.00;99633.06;5122180;29;20403;-78
2021/10/03 09:37:25;;;;;;;18.10;9.35;;;;;;;12.59;100.00;99645.25;5122102;29;20025;-78
2021/10/03 09:40:05;;;;;;;14.73;8.48;;;;;;;12.61;100.00;99651.28;5094317;29;20062;-79
2021/10/03 09:42:36;;;;;;;18.48;9.30;;;;;;;12.65;100.00;99658.72;5104437;29;20122;-79
2021/10/03 09:45:15;;;;;;;13.85;8.07;;;;;;;12.68;100.00;99654.78;5105706;29;20570;-78
2021/10/03 09:47:45;;;;;;;18.38;9.88;;;;;;;12.73;100.00;99664.91;5108822;29;20035;-78
2021/10/03 09:50:16;;;;;;;15.88;8.88;;;;;;;12.72;100.00;99680.25;5121834;29;20038;-78
2021/10/03 09:52:46;;;;;;;16.65;9.48;;;;;;;12.74;100.00;99659.31;5121326;29;20444;-78
2021/10/03 09:55:18;;;;;;;18.27;10.15;;;;;;;12.79;100.00;99653.31;5121592;29;20779;-78
2021/10/03 09:57:49;;;;;;;19.00;9.48;;;;;;;12.79;100.00;99664.06;5121987;28;20043;-78
2021/10/03 10:00:23;;;;;;;17.45;10.48;;;;;;;12.80;100.00;99665.72;5121292;29;20438;-78
2021/10/03 10:02:54;;;;;;;18.20;9.15;;;;;;;12.88;100.00;99662.81;5121034;28;20038;-79
2021/10/03 10:05:27;;;;;;;22.17;12.05;;;;;;;12.84;100.00;99665.09;5120130;28;20024;-79
2021/10/03 10:07:58;;;;;;;18.35;11.13;;;;;;;12.81;100.00;99670.91;5122063;29;20027;-78
2021/10/03 10:10:32;;;;;;;19.23;10.20;;;;;;;12.80;100.00;99668.41;5121513;29;20102;-79
2021/10/03 10:13:08;;;;;;;17.58;9.38;;;;;;;12.78;100.00;99660.56;5122464;29;20031;-79
2021/10/03 10:15:39;;;;;;;16.20;8.20;;;;;;;12.77;100.00;99666.16;5089075;29;20027;-80
2021/10/03 10:18:22;;;;;;;19.00;10.30;;;;;;;12.77;100.00;99655.41;5122154;29;20038;-80
2021/10/03 10:20:53;;;;;;;21.35;11.02;;;;;;;12.80;100.00;99650.44;5105130;29;20062;-80
2021/10/03 10:23:29;;;;;;;23.02;11.55;;;;;;;12.81;100.00;99668.22;5109261;29;20474;-78
2021/10/03 10:26:00;;;;;;;17.27;9.60;;;;;;;12.80;100.00;99687.25;5122455;29;20522;-78
2021/10/03 10:28:31;;;;;;;16.33;9.05;;;;;;;12.77;100.00;99688.50;5104372;29;20027;-78
2021/10/03 10:31:16;;;;;;;15.88;9.07;;;;;;;12.73;100.00;99691.81;5120802;29;20052;-78
2021/10/03 10:33:49;;;;;;;16.42;9.27;;;;;;;12.81;100.00;99694.31;5103827;29;20035;-78
2021/10/03 10:36:23;;;;;;;21.80;10.50;;;;;;;12.87;100.00;99690.78;5120938;29;20046;-79
2021/10/03 10:39:06;;;;;;;17.60;10.57;;;;;;;12.90;100.00;99698.41;5121884;29;20027;-80
2021/10/03 10:41:46;;;;;;;20.42;10.93;;;;;;;12.92;100.00;99715.22;5121741;29;20109;-78
2021/10/03 10:44:27;;;;;;;22.42;12.02;;;;;;;12.94;100.00;99730.09;5108321;28;20031;-78
2021/10/03 10:47:06;;;;;;;20.60;10.80;;;;;;;12.93;100.00;99727.63;5120800;29;20043;-78
2021/10/03 10:49:45;;;;;;;18.83;10.60;;;;;;;12.95;100.00;99728.22;5103816;29;20391;-78
2021/10/03 10:52:19;;;;;;;16.17;9.38;;;;;;;12.99;100.00;99732.16;5103921;29;20023;-78
2021/10/03 10:54:59;;;;;;;17.70;9.80;;;;;;;12.96;100.00;99725.34;5121670;29;20039;-78
2021/10/03 10:57:32;;;;;;;27.13;14.43;;;;;;;12.99;100.00;99723.28;5090733;29;20043;-77
2021/10/03 11:00:19;;;;;;;19.77;11.45;;;;;;;13.01;100.00;99722.03;5120167;29;20050;-76
2021/10/03 11:02:57;;;;;;;38.55;27.77;;;;;;;13.06;100.00;99718.72;5146200;23;20543;-74
2021/10/03 11:05:34;;;;;;;29.23;19.60;;;;;;;13.12;100.00;99721.38;5168356;28;20026;-74
2021/10/03 11:08:10;;;;;;;37.30;22.85;;;;;;;13.18;100.00;99722.41;5161168;28;20066;-74
2021/10/03 11:10:57;;;;;;;20.20;10.68;;;;;;;13.26;100.00;99733.00;5160712;28;20037;-74
2021/10/03 11:13:48;;;;;;;27.42;18.35;;;;;;;13.30;100.00;99746.84;5160392;28;20466;-73
2021/10/03 11:16:28;;;;;;;18.67;10.05;;;;;;;13.24;100.00;99750.41;5159966;28;20014;-73
2021/10/03 11:19:05;;;;;;;14.80;8.88;;;;;;;13.18;100.00;99752.03;5160844;28;20034;-73
2021/10/03 11:21:37;;;;;;;20.20;9.57;;;;;;;13.18;100.00;99757.41;5143010;28;20023;-73
2021/10/03 11:24:10;;;;;;;19.10;10.38;;;;;;;13.23;100.00;99759.50;5160185;28;20084;-74
2021/10/03 11:26:48;;;;;;;15.23;9.40;;;;;;;13.24;100.00;99764.69;5160048;28;20395;-73
2021/10/03 11:29:21;;;;;;;22.00;14.43;;;;;;;13.15;100.00;99777.53;5160313;28;20057;-73
2021/10/03 11:31:55;;;;;;;30.10;21.38;;;;;;;13.10;100.00;99773.78;5160354;28;20022;-73
2021/10/03 11:34:44;;;;;;;23.20;16.77;;;;;;;13.08;100.00;99775.88;5160020;28;20030;-73
2021/10/03 11:37:34;;;;;;;17.08;11.35;;;;;;;13.04;100.00;99790.78;5160247;28;20030;-73
2021/10/03 11:40:13;;;;;;;17.27;8.38;;;;;;;13.02;100.00;99796.38;5159882;28;20022;-73
2021/10/03 11:42:53;;;;;;;17.02;10.40;;;;;;;12.93;100.00;99819.97;5159484;28;20038;-73
2021/10/03 11:45:28;;;;;;;13.05;7.10;;;;;;;12.93;100.00;99838.00;5160021;28;20390;-73